Time;durP1;ratioP1;P1;durP2;ratioP2;P2;SDS_P1;SDS_P2;PMS_P1;PMS_P2;Temp;Humidity;BMP_temperature;BMP_pressure;BME280_temperature;BME280_humidity;BME280_pressure;Samples;Min_cycle;Max_cycle;Signal;HPM_P1;HPM_P2
2022/07/30 00:00:37;;;;;;;15.03;9.43;;;19.90;99.90;;;;;;5030236;28;20453;-74
2022/07/30 00:03:25;;;;;;;14.40;8.50;;;19.90;99.90;;;;;;5031262;28;20446;-74
2022/07/30 00:06:10;;;;;;;11.83;7.97;;;19.90;99.90;;;;;;5029402;28;20467;-72
2022/07/30 00:08:56;;;;;;;15.07;9.10;;;20.00;99.90;;;;;;5029162;28;21015;-74
2022/07/30 00:11:41;;;;;;;24.57;9.30;;;20.00;99.90;;;;;;5042533;28;20427;-74
2022/07/30 00:14:27;;;;;;;10.73;7.93;;;20.00;99.90;;;;;;5027926;28;20462;-71
2022/07/30 00:17:12;;;;;;;9.77;8.60;;;19.80;99.90;;;;;;5032330;28;20449;-73
2022/07/30 00:19:59;;;;;;;14.53;9.37;;;19.70;99.90;;;;;;5028829;28;20457;-74
2022/07/30 00:22:46;;;;;;;14.63;9.13;;;19.60;99.90;;;;;;5024234;28;20448;-74
2022/07/30 00:25:32;;;;;;;10.70;8.83;;;19.60;99.90;;;;;;5037923;28;20535;-73
2022/07/30 00:28:18;;;;;;;11.90;8.60;;;19.60;99.90;;;;;;5032287;28;20588;-73
2022/07/30 00:31:03;;;;;;;8.90;7.50;;;19.50;99.90;;;;;;5033545;28;20440;-73
2022/07/30 00:33:49;;;;;;;9.53;8.53;;;19.50;99.90;;;;;;5036884;28;20475;-74
2022/07/30 00:36:36;;;;;;;10.47;9.20;;;19.60;99.90;;;;;;5024068;28;20449;-73
2022/07/30 00:39:22;;;;;;;10.93;8.50;;;19.50;99.90;;;;;;5027612;28;20471;-72
2022/07/30 00:42:07;;;;;;;11.10;7.90;;;19.60;99.90;;;;;;5033742;28;20571;-73
2022/07/30 00:44:53;;;;;;;10.73;8.70;;;19.50;99.90;;;;;;5029790;28;20511;-74
2022/07/30 00:47:39;;;;;;;13.13;8.83;;;19.50;99.90;;;;;;5023371;28;20468;-73
2022/07/30 00:50:25;;;;;;;8.90;8.10;;;19.40;99.90;;;;;;5031622;28;20448;-74
2022/07/30 00:53:12;;;;;;;13.30;8.93;;;19.30;99.90;;;;;;5036990;28;20495;-73
2022/07/30 00:55:58;;;;;;;11.50;9.10;;;19.20;99.90;;;;;;5030966;28;20548;-73
2022/07/30 00:58:43;;;;;;;10.27;8.57;;;19.10;99.90;;;;;;5028744;28;20588;-74
2022/07/30 01:01:31;;;;;;;14.80;8.83;;;19.10;99.90;;;;;;5031156;28;20440;-73
2022/07/30 01:04:16;;;;;;;11.47;8.50;;;19.20;99.90;;;;;;5038925;28;20487;-70
2022/07/30 01:07:02;;;;;;;14.53;8.93;;;19.20;99.90;;;;;;5028913;28;20528;-73
2022/07/30 01:09:49;;;;;;;9.00;8.10;;;19.20;99.90;;;;;;5031171;28;20456;-73
2022/07/30 01:12:35;;;;;;;13.43;8.90;;;19.10;99.90;;;;;;5030667;28;20448;-72
2022/07/30 01:15:22;;;;;;;9.63;8.37;;;19.10;99.90;;;;;;5036109;28;20488;-73
2022/07/30 01:18:12;;;;;;;10.20;9.20;;;18.90;99.90;;;;;;5024334;28;20846;-73
2022/07/30 01:21:04;;;;;;;11.90;9.43;;;18.90;99.90;;;;;;5034173;28;20437;-74
2022/07/30 01:23:53;;;;;;;11.97;8.90;;;18.80;99.90;;;;;;5029745;28;20479;-73
2022/07/30 01:26:40;;;;;;;14.47;8.57;;;18.80;99.90;;;;;;5028341;28;20816;-73
2022/07/30 01:29:29;;;;;;;14.10;9.03;;;18.70;99.90;;;;;;5028831;28;20471;-73
2022/07/30 01:32:15;;;;;;;11.43;9.17;;;18.70;99.90;;;;;;5037847;28;20522;-73
2022/07/30 01:35:03;;;;;;;10.63;8.70;;;18.70;99.90;;;;;;5030614;28;20468;-74
2022/07/30 01:37:51;;;;;;;12.20;8.07;;;18.70;99.90;;;;;;5032564;28;20459;-73
2022/07/30 01:40:38;;;;;;;11.00;9.60;;;18.80;99.90;;;;;;5019938;28;20453;-73
2022/07/30 01:43:26;;;;;;;12.00;10.73;;;18.60;99.90;;;;;;5033857;28;20446;-73
2022/07/30 01:46:14;;;;;;;15.07;10.50;;;18.70;99.90;;;;;;5027720;28;20953;-73
2022/07/30 01:49:02;;;;;;;11.60;10.40;;;18.60;99.90;;;;;;5036826;28;20477;-72
2022/07/30 01:51:50;;;;;;;11.40;9.80;;;18.60;99.90;;;;;;5030010;28;20449;-73
2022/07/30 01:54:37;;;;;;;9.80;8.83;;;18.70;99.90;;;;;;5030106;28;20597;-74
2022/07/30 01:57:24;;;;;;;9.90;8.90;;;18.70;99.90;;;;;;5023937;28;20463;-72
2022/07/30 02:00:12;;;;;;;9.80;8.90;;;18.70;99.90;;;;;;5026698;28;20528;-73
2022/07/30 02:02:58;;;;;;;8.40;7.60;;;18.60;99.90;;;;;;5030063;28;20449;-73
2022/07/30 02:05:50;;;;;;;10.17;9.17;;;18.60;99.90;;;;;;5032837;28;20472;-73
2022/07/30 02:08:41;;;;;;;10.23;8.57;;;18.60;99.90;;;;;;5039207;28;20469;-73
2022/07/30 02:14:37;;;;;;;8.07;7.37;;;18.50;99.90;;;;;;5029544;28;20903;-74
2022/07/30 02:17:29;;;;;;;9.67;8.77;;;18.40;99.90;;;;;;5028486;28;20526;-74
2022/07/30 02:20:17;;;;;;;8.97;8.17;;;18.50;99.90;;;;;;5038473;28;20483;-74
2022/07/30 02:23:07;;;;;;;10.00;9.00;;;18.30;99.90;;;;;;5028011;28;20567;-74
2022/07/30 02:25:53;;;;;;;9.23;8.33;;;18.30;99.90;;;;;;5018858;28;20495;-73
2022/07/30 02:28:41;;;;;;;9.03;8.23;;;18.30;99.90;;;;;;5030932;28;20487;-73
2022/07/30 02:31:29;;;;;;;9.80;8.80;;;18.30;99.90;;;;;;5035413;28;20459;-73
2022/07/30 02:34:20;;;;;;;13.70;8.30;;;18.20;99.90;;;;;;5030219;28;20463;-73
2022/07/30 02:37:07;;;;;;;12.80;7.63;;;18.20;99.90;;;;;;5034462;28;20420;-73
2022/07/30 02:39:55;;;;;;;8.23;7.43;;;18.30;99.90;;;;;;5031760;28;20444;-74
2022/07/30 02:42:43;;;;;;;12.90;8.80;;;18.30;99.90;;;;;;5030802;28;20453;-73
2022/07/30 02:45:30;;;;;;;10.93;8.30;;;18.30;99.90;;;;;;5023000;28;20471;-73
2022/07/30 02:48:18;;;;;;;8.87;7.97;;;18.30;99.90;;;;;;5034466;28;20467;-74
2022/07/30 02:51:06;;;;;;;9.23;8.33;;;18.30;99.90;;;;;;5035927;28;20437;-73
2022/07/30 02:53:54;;;;;;;11.13;8.43;;;18.40;99.90;;;;;;5023631;28;20522;-73
2022/07/30 02:56:41;;;;;;;10.87;9.87;;;18.30;99.90;;;;;;5027184;28;20495;-73
2022/07/30 02:59:28;;;;;;;10.80;9.50;;;18.30;99.90;;;;;;5035004;28;20444;-73
2022/07/30 03:02:14;;;;;;;12.03;9.83;;;18.10;99.90;;;;;;5040302;28;20468;-73
2022/07/30 03:05:03;;;;;;;13.63;11.53;;;18.10;99.90;;;;;;5024592;28;20476;-74
2022/07/30 03:07:50;;;;;;;14.30;10.10;;;18.10;99.90;;;;;;5021045;28;20528;-73
2022/07/30 03:10:37;;;;;;;9.40;8.50;;;18.30;99.90;;;;;;5027906;28;20811;-73
2022/07/30 03:13:24;;;;;;;13.53;9.80;;;18.30;99.90;;;;;;5023175;28;20457;-73
2022/07/30 03:16:12;;;;;;;12.10;10.97;;;18.40;99.90;;;;;;5027538;28;20923;-73
2022/07/30 03:19:02;;;;;;;45.40;12.73;;;18.50;99.90;;;;;;5027332;28;20897;-72
2022/07/30 03:21:49;;;;;;;12.67;11.37;;;18.60;99.90;;;;;;5032423;28;20858;-74
2022/07/30 03:24:39;;;;;;;11.93;10.63;;;18.50;99.90;;;;;;5026085;28;20463;-73
2022/07/30 03:27:25;;;;;;;12.17;10.97;;;18.50;99.90;;;;;;5022193;28;20452;-73
2022/07/30 03:30:13;;;;;;;10.27;9.27;;;18.50;99.90;;;;;;5029817;28;20568;-73
2022/07/30 03:32:59;;;;;;;11.60;8.87;;;18.50;99.90;;;;;;5028160;28;20957;-74
2022/07/30 03:35:46;;;;;;;9.80;8.90;;;18.50;99.90;;;;;;5024217;28;20523;-73
2022/07/30 03:38:32;;;;;;;10.90;9.90;;;18.50;99.90;;;;;;5027833;28;20546;-73
2022/07/30 03:41:20;;;;;;;11.03;9.83;;;18.50;99.90;;;;;;5033627;28;20590;-74
2022/07/30 03:44:07;;;;;;;23.93;11.33;;;18.50;99.90;;;;;;5026324;28;20559;-74
2022/07/30 03:46:53;;;;;;;38.33;9.23;;;18.40;99.90;;;;;;5023381;28;20445;-74
2022/07/30 03:49:39;;;;;;;58.90;9.77;;;18.30;99.90;;;;;;5025581;28;20823;-73
2022/07/30 03:52:26;;;;;;;9.73;8.77;;;18.10;99.90;;;;;;5028417;28;20452;-72
2022/07/30 03:55:13;;;;;;;11.87;9.80;;;18.00;99.90;;;;;;5027078;28;20469;-73
2022/07/30 03:58:01;;;;;;;11.43;10.30;;;18.00;99.90;;;;;;5025224;28;20444;-73
2022/07/30 04:00:48;;;;;;;9.47;8.57;;;18.00;99.90;;;;;;5026702;28;20444;-73
2022/07/30 04:03:34;;;;;;;9.97;8.97;;;18.00;99.90;;;;;;5020712;28;20436;-73
2022/07/30 04:06:19;;;;;;;11.03;8.97;;;18.10;99.90;;;;;;5028606;28;20564;-74
2022/07/30 04:09:07;;;;;;;10.17;8.90;;;18.10;99.90;;;;;;5034784;28;20475;-73
2022/07/30 04:11:52;;;;;;;9.70;8.30;;;18.10;99.90;;;;;;5037127;28;20435;-73
2022/07/30 04:14:42;;;;;;;14.87;9.97;;;17.90;99.90;;;;;;5024953;28;20472;-73
2022/07/30 04:17:33;;;;;;;11.13;9.67;;;17.60;99.90;;;;;;5028092;28;20550;-73
2022/07/30 04:20:24;;;;;;;10.33;9.37;;;17.40;99.90;;;;;;5028051;28;20440;-74
2022/07/30 04:23:10;;;;;;;10.77;8.90;;;17.40;99.90;;;;;;5029064;28;21127;-73
2022/07/30 04:25:56;;;;;;;9.20;8.30;;;17.40;99.90;;;;;;5023899;28;20444;-73
2022/07/30 04:28:42;;;;;;;10.90;9.80;;;17.30;99.90;;;;;;5026951;28;20480;-73
2022/07/30 04:31:34;;;;;;;16.23;9.60;;;17.40;99.90;;;;;;5027293;28;20419;-73
2022/07/30 04:34:19;;;;;;;10.07;8.50;;;17.50;99.90;;;;;;5027442;28;20463;-73
2022/07/30 04:37:04;;;;;;;8.87;8.07;;;17.60;99.90;;;;;;5023268;28;20431;-72
2022/07/30 04:39:53;;;;;;;14.20;9.80;;;17.50;99.90;;;;;;5026383;28;20464;-71
2022/07/30 04:42:38;;;;;;;10.13;9.23;;;17.50;99.90;;;;;;5021185;28;20814;-72
2022/07/30 04:45:24;;;;;;;10.60;9.60;;;17.50;99.90;;;;;;5031796;28;20454;-73
2022/07/30 04:48:11;;;;;;;10.30;8.47;;;17.50;99.90;;;;;;5028051;28;20441;-73
2022/07/30 04:51:01;;;;;;;9.70;8.80;;;17.50;99.90;;;;;;5027846;28;20471;-71
2022/07/30 04:53:48;;;;;;;9.30;8.40;;;17.60;99.90;;;;;;5022101;28;20472;-73
2022/07/30 04:56:35;;;;;;;9.70;8.80;;;17.60;99.90;;;;;;5025165;28;20452;-73
2022/07/30 04:59:23;;;;;;;11.23;9.73;;;17.70;99.90;;;;;;5025575;28;20436;-73
2022/07/30 05:02:10;;;;;;;11.33;10.17;;;17.80;99.90;;;;;;5020128;28;20447;-73
2022/07/30 05:04:59;;;;;;;10.20;9.13;;;17.90;99.90;;;;;;5026165;28;20467;-71
2022/07/30 05:07:45;;;;;;;11.40;10.30;;;18.00;99.90;;;;;;5020294;28;20526;-73
2022/07/30 05:10:31;;;;;;;9.97;9.00;;;18.10;99.90;;;;;;5024874;28;20842;-74
2022/07/30 05:13:17;;;;;;;9.77;8.87;;;18.10;99.90;;;;;;5026530;28;20418;-74
2022/07/30 05:16:02;;;;;;;10.70;9.70;;;18.20;99.90;;;;;;5023321;28;20429;-73
2022/07/30 05:18:48;;;;;;;10.00;9.07;;;18.30;99.90;;;;;;5018073;28;20440;-71
2022/07/30 05:21:35;;;;;;;9.97;8.97;;;18.40;99.90;;;;;;5025724;28;20969;-73
2022/07/30 05:24:21;;;;;;;10.70;9.60;;;18.50;99.90;;;;;;5027633;28;20467;-73
2022/07/30 05:27:06;;;;;;;11.50;9.47;;;18.50;99.90;;;;;;5028113;28;20583;-74
2022/07/30 05:29:52;;;;;;;11.43;9.83;;;18.40;99.90;;;;;;5026104;28;20481;-74
2022/07/30 05:32:37;;;;;;;10.60;9.63;;;18.40;99.90;;;;;;5028466;28;20491;-73
2022/07/30 05:35:23;;;;;;;10.40;9.40;;;18.40;99.90;;;;;;5027383;28;20817;-70
2022/07/30 05:38:09;;;;;;;9.83;8.93;;;18.50;99.90;;;;;;5030777;28;21118;-74
2022/07/30 05:40:55;;;;;;;11.70;10.50;;;18.50;99.90;;;;;;5028155;28;20449;-73
2022/07/30 05:43:41;;;;;;;11.37;10.37;;;18.60;99.90;;;;;;5024996;28;20528;-72
2022/07/30 05:46:26;;;;;;;11.23;10.13;;;18.60;99.90;;;;;;5028861;28;20839;-74
2022/07/30 05:49:12;;;;;;;11.03;9.27;;;18.60;99.90;;;;;;5033947;28;20475;-73
2022/07/30 05:51:57;;;;;;;11.67;10.57;;;18.60;99.90;;;;;;5028403;28;20488;-73
2022/07/30 05:54:45;;;;;;;13.30;11.93;;;18.70;99.90;;;;;;5029023;28;20465;-71
2022/07/30 05:57:30;;;;;;;12.40;11.30;;;18.80;99.90;;;;;;5026942;28;20448;-73
2022/07/30 06:00:17;;;;;;;12.67;10.77;;;18.90;99.90;;;;;;5030264;28;20844;-73
2022/07/30 06:03:02;;;;;;;11.40;10.30;;;19.00;99.90;;;;;;5025870;28;20464;-74
2022/07/30 06:05:48;;;;;;;12.07;10.77;;;19.00;99.90;;;;;;5029752;28;20448;-74
2022/07/30 06:08:34;;;;;;;11.53;10.33;;;19.10;99.90;;;;;;5025217;28;20919;-73
2022/07/30 06:11:20;;;;;;;10.87;9.77;;;19.20;99.90;;;;;;5030605;28;20520;-74
2022/07/30 06:14:06;;;;;;;11.03;9.43;;;19.30;99.90;;;;;;5031209;28;20546;-73
2022/07/30 06:16:52;;;;;;;11.93;9.50;;;19.40;99.90;;;;;;5026891;28;20448;-73
2022/07/30 06:19:37;;;;;;;11.43;9.60;;;19.50;99.90;;;;;;5027986;28;20441;-74
2022/07/30 06:22:23;;;;;;;10.90;9.80;;;19.50;99.90;;;;;;5024727;28;20821;-74
2022/07/30 06:25:09;;;;;;;11.83;10.43;;;19.50;99.90;;;;;;5030589;28;20547;-73
2022/07/30 06:27:56;;;;;;;12.90;9.20;;;19.60;99.90;;;;;;5020838;28;20940;-74
2022/07/30 06:30:44;;;;;;;9.17;8.40;;;19.70;99.90;;;;;;5023414;28;20479;-74
2022/07/30 06:33:30;;;;;;;11.97;9.17;;;19.70;99.90;;;;;;5030505;28;21015;-74
2022/07/30 06:36:15;;;;;;;11.53;10.40;;;19.70;99.90;;;;;;5030304;28;20440;-74
2022/07/30 06:39:01;;;;;;;13.23;9.63;;;19.70;99.90;;;;;;5029412;28;20511;-74
2022/07/30 06:41:47;;;;;;;13.63;9.30;;;19.80;99.90;;;;;;5026818;28;20453;-74
2022/07/30 06:44:34;;;;;;;10.97;9.07;;;19.90;99.90;;;;;;5026140;28;20706;-74
2022/07/30 06:47:24;;;;;;;13.17;9.50;;;20.00;99.90;;;;;;5028805;28;20968;-73
2022/07/30 06:50:10;;;;;;;9.93;8.47;;;20.10;99.90;;;;;;5028028;28;20483;-74
2022/07/30 06:52:56;;;;;;;10.40;9.30;;;20.20;99.90;;;;;;5027108;28;20460;-73
2022/07/30 06:55:41;;;;;;;13.03;9.80;;;20.30;99.90;;;;;;5026175;28;20461;-73
2022/07/30 06:58:27;;;;;;;11.90;9.20;;;20.30;99.90;;;;;;5022880;28;20448;-72
2022/07/30 07:01:14;;;;;;;12.60;9.57;;;20.40;99.90;;;;;;5021275;28;20523;-73
2022/07/30 07:04:00;;;;;;;13.93;9.53;;;20.40;99.90;;;;;;5026526;28;20444;-73
2022/07/30 07:06:46;;;;;;;11.67;9.50;;;20.30;99.90;;;;;;5031965;28;20498;-73
2022/07/30 07:09:31;;;;;;;11.27;9.60;;;20.40;99.90;;;;;;5026372;28;20483;-74
2022/07/30 07:12:17;;;;;;;18.13;8.87;;;20.40;99.90;;;;;;5026644;28;21036;-74
2022/07/30 07:15:02;;;;;;;12.93;10.40;;;20.40;99.90;;;;;;5026461;28;20511;-73
2022/07/30 07:17:49;;;;;;;10.80;8.77;;;20.50;99.90;;;;;;5028690;28;20444;-73
2022/07/30 07:20:35;;;;;;;13.73;8.73;;;20.60;99.90;;;;;;5019060;28;20459;-73
2022/07/30 07:23:21;;;;;;;12.90;9.70;;;20.70;99.90;;;;;;5025431;28;20455;-74
2022/07/30 07:26:06;;;;;;;11.43;8.17;;;20.70;99.90;;;;;;5023603;28;20551;-73
2022/07/30 07:28:52;;;;;;;14.83;9.73;;;20.80;99.90;;;;;;5021036;28;20591;-74
2022/07/30 07:31:38;;;;;;;9.80;8.23;;;20.90;99.90;;;;;;5021981;28;20436;-73
2022/07/30 07:34:24;;;;;;;16.47;8.53;;;20.90;99.90;;;;;;5026850;28;22482;-73
2022/07/30 07:37:10;;;;;;;10.93;8.17;;;20.90;99.90;;;;;;5023664;28;20444;-74
2022/07/30 07:39:56;;;;;;;11.20;7.90;;;21.00;99.90;;;;;;5032286;28;20449;-73
2022/07/30 07:42:41;;;;;;;13.63;8.93;;;21.20;99.90;;;;;;5028648;28;20803;-74
2022/07/30 07:45:27;;;;;;;14.00;7.40;;;21.10;99.90;;;;;;5018901;28;20487;-73
2022/07/30 07:48:12;;;;;;;10.77;7.23;;;21.20;99.90;;;;;;5022299;28;20451;-73
2022/07/30 07:51:00;;;;;;;20.67;8.10;;;21.30;99.90;;;;;;5027428;28;20483;-74
2022/07/30 07:53:46;;;;;;;14.70;7.60;;;21.40;99.90;;;;;;5018592;28;20469;-73
2022/07/30 07:56:31;;;;;;;10.57;7.03;;;21.50;99.90;;;;;;5023866;28;20448;-73
2022/07/30 07:59:16;;;;;;;13.60;8.00;;;21.60;99.90;;;;;;5026378;28;20953;-73
2022/07/30 08:02:02;;;;;;;11.77;9.20;;;21.50;97.60;;;;;;5022604;28;21345;-73
2022/07/30 08:04:48;;;;;;;11.30;7.70;;;21.40;97.00;;;;;;5027353;28;20830;-74
2022/07/30 08:07:35;;;;;;;12.60;8.73;;;21.50;97.40;;;;;;5035055;28;20459;-74
2022/07/30 08:10:21;;;;;;;10.67;7.40;;;21.50;96.40;;;;;;5025992;28;21072;-74
2022/07/30 08:13:07;;;;;;;12.10;8.93;;;21.60;96.60;;;;;;5041504;28;20432;-73
2022/07/30 08:15:53;;;;;;;13.47;8.10;;;21.60;92.90;;;;;;5042459;28;20456;-73
2022/07/30 08:18:38;;;;;;;11.53;7.43;;;21.60;94.30;;;;;;5033146;28;20428;-73
2022/07/30 08:21:24;;;;;;;14.33;7.93;;;21.80;94.60;;;;;;5031817;28;20437;-73
2022/07/30 08:24:11;;;;;;;10.37;7.90;;;21.90;92.50;;;;;;5036003;28;20524;-74
2022/07/30 08:26:57;;;;;;;12.40;8.10;;;21.90;90.70;;;;;;5030809;28;20430;-73
2022/07/30 08:29:42;;;;;;;21.33;9.57;;;22.00;92.00;;;;;;5026664;28;20465;-74
2022/07/30 08:32:28;;;;;;;12.27;10.27;;;22.10;89.00;;;;;;5025157;28;20447;-73
2022/07/30 08:35:14;;;;;;;14.60;8.90;;;22.10;83.80;;;;;;5028860;28;20480;-74
2022/07/30 08:37:59;;;;;;;13.83;9.50;;;22.10;84.00;;;;;;5030269;28;20451;-73
2022/07/30 08:40:47;;;;;;;11.60;9.30;;;22.00;83.10;;;;;;5027477;28;20454;-73
2022/07/30 08:43:35;;;;;;;12.80;9.03;;;22.20;81.10;;;;;;5023225;28;20567;-74
2022/07/30 08:46:25;;;;;;;11.50;7.97;;;22.40;81.70;;;;;;5031251;28;20445;-74
2022/07/30 08:49:13;;;;;;;15.10;8.63;;;22.40;83.40;;;;;;5030518;28;21088;-74
2022/07/30 08:51:58;;;;;;;12.83;7.03;;;22.60;78.90;;;;;;5023972;28;20444;-74
2022/07/30 08:54:44;;;;;;;12.30;8.27;;;22.70;75.90;;;;;;5022047;28;20472;-74
2022/07/30 08:57:32;;;;;;;12.03;8.20;;;22.70;71.70;;;;;;5032852;28;20494;-73
2022/07/30 09:00:19;;;;;;;10.67;8.03;;;22.70;71.80;;;;;;5020023;28;20436;-74
2022/07/30 09:03:05;;;;;;;20.43;8.07;;;22.80;70.10;;;;;;5031537;28;20448;-73
2022/07/30 09:05:50;;;;;;;8.03;6.00;;;22.90;70.10;;;;;;5030447;28;20452;-74
2022/07/30 09:08:36;;;;;;;16.50;6.70;;;23.00;72.50;;;;;;5026829;28;20447;-73
2022/07/30 09:11:22;;;;;;;10.13;6.60;;;23.10;70.60;;;;;;5026416;28;20468;-74
2022/07/30 09:14:10;;;;;;;9.17;6.73;;;23.30;72.50;;;;;;5036605;28;21048;-73
2022/07/30 09:16:57;;;;;;;13.03;7.73;;;23.30;66.00;;;;;;5044247;28;20429;-73
2022/07/30 09:20:01;;;;;;;13.77;7.50;;;23.40;66.20;;;;;;5024429;28;20547;-73
2022/07/30 09:22:49;;;;;;;13.53;6.97;;;23.50;66.10;;;;;;5030167;28;20424;-74
2022/07/30 09:25:40;;;;;;;13.60;7.97;;;23.70;63.40;;;;;;5034917;28;20447;-73
2022/07/30 09:28:31;;;;;;;9.13;6.40;;;23.70;57.30;;;;;;5035419;28;20428;-73
2022/07/30 09:31:18;;;;;;;12.53;6.93;;;23.60;60.80;;;;;;5036870;28;20475;-74
2022/07/30 09:34:22;;;;;;;10.93;7.23;;;23.60;60.70;;;;;;5049158;28;20447;-73
2022/07/30 09:37:18;;;;;;;17.23;7.30;;;23.80;60.50;;;;;;5041596;28;20417;-73
2022/07/30 09:40:12;;;;;;;11.00;6.53;;;24.00;59.50;;;;;;5023485;28;20983;-73
2022/07/30 09:43:06;;;;;;;9.33;6.80;;;24.20;61.10;;;;;;5029715;28;20440;-74
2022/07/30 09:45:54;;;;;;;13.50;5.83;;;24.30;56.10;;;;;;5028200;28;20453;-74
2022/07/30 09:48:42;;;;;;;11.50;5.70;;;24.40;58.00;;;;;;5026041;28;20453;-73
2022/07/30 09:51:38;;;;;;;9.90;5.77;;;24.60;57.80;;;;;;5027594;28;20612;-73
2022/07/30 09:54:25;;;;;;;11.87;5.87;;;24.60;52.30;;;;;;5023419;28;20467;-74
2022/07/30 09:57:11;;;;;;;8.87;5.00;;;24.50;52.50;;;;;;5029770;28;20483;-77
2022/07/30 09:59:57;;;;;;;8.00;5.50;;;24.50;51.30;;;;;;5030235;28;20441;-77
2022/07/30 10:02:43;;;;;;;8.73;5.20;;;24.40;48.20;;;;;;5028363;28;20456;-77
2022/07/30 10:05:30;;;;;;;7.80;4.20;;;24.40;50.30;;;;;;5030191;28;20466;-75
2022/07/30 10:08:16;;;;;;;12.13;4.60;;;24.50;54.50;;;;;;5021672;28;20510;-76
2022/07/30 10:11:02;;;;;;;8.50;4.60;;;24.50;48.50;;;;;;5028344;28;20836;-76
2022/07/30 10:13:49;;;;;;;14.23;6.17;;;24.80;44.70;;;;;;5030993;28;20476;-76
2022/07/30 10:16:35;;;;;;;7.77;5.83;;;24.70;43.40;;;;;;5029609;28;20451;-76
2022/07/30 10:19:21;;;;;;;8.17;6.13;;;24.70;46.70;;;;;;5020763;28;20513;-75
2022/07/30 10:22:09;;;;;;;7.93;5.23;;;24.50;44.40;;;;;;5035673;28;20440;-77
2022/07/30 10:24:55;;;;;;;11.93;5.67;;;24.50;46.10;;;;;;5026852;28;20840;-76
2022/07/30 10:27:41;;;;;;;7.83;5.20;;;24.60;44.50;;;;;;5028951;28;20448;-77
2022/07/30 10:30:27;;;;;;;6.70;5.30;;;24.80;44.20;;;;;;5029665;28;21008;-74
2022/07/30 10:33:13;;;;;;;7.77;4.73;;;24.80;44.70;;;;;;5032959;28;20839;-76
2022/07/30 10:35:58;;;;;;;11.13;4.70;;;25.10;46.10;;;;;;5026848;28;20436;-77
2022/07/30 10:38:47;;;;;;;8.50;4.33;;;25.30;43.00;;;;;;5025075;28;20448;-77
2022/07/30 10:41:46;;;;;;;8.83;4.37;;;25.40;42.00;;;;;;5029311;28;20443;-76
2022/07/30 10:45:00;;;;;;;10.80;4.63;;;25.30;40.50;;;;;;5052115;22;20498;-77
2022/07/30 10:47:47;;;;;;;4.10;3.70;;;25.20;40.70;;;;;;5060902;28;20876;-77
2022/07/30 10:50:48;;;;;;;8.57;4.23;;;25.10;43.10;;;;;;5066555;28;20549;-77
2022/07/30 10:53:35;;;;;;;12.27;5.17;;;25.20;45.10;;;;;;5067377;28;20469;-77
2022/07/30 10:56:24;;;;;;;5.77;3.80;;;25.10;39.30;;;;;;5046421;28;20439;-77
2022/07/30 10:59:11;;;;;;;6.80;4.00;;;25.00;39.30;;;;;;5040727;28;20925;-77
2022/07/30 11:02:09;;;;;;;8.33;3.40;;;25.10;41.80;;;;;;5046245;28;20579;-77
2022/07/30 11:05:23;;;;;;;7.30;3.80;;;25.30;40.50;;;;;;5039237;28;20922;-78
2022/07/30 11:08:29;;;;;;;8.63;3.20;;;25.50;39.40;;;;;;5042823;28;20562;-78
2022/07/30 11:11:45;;;;;;;5.20;3.10;;;25.40;37.00;;;;;;5046492;28;20466;-78
2022/07/30 11:14:57;;;;;;;12.13;2.50;;;25.60;35.10;;;;;;5047995;28;20459;-77
2022/07/30 11:18:07;;;;;;;5.90;2.27;;;25.90;34.00;;;;;;5043559;28;20455;-75
2022/07/30 11:21:16;;;;;;;6.13;2.27;;;26.20;30.70;;;;;;5040969;28;20458;-75
2022/07/30 11:24:02;;;;;;;4.53;2.20;;;26.40;30.10;;;;;;5042477;28;20522;-75
2022/07/30 11:26:51;;;;;;;14.90;2.87;;;26.70;30.90;;;;;;5039671;28;20533;-75
2022/07/30 11:29:41;;;;;;;7.50;2.70;;;26.80;29.90;;;;;;5042026;28;20986;-75
2022/07/30 11:32:30;;;;;;;3.77;2.30;;;26.90;29.00;;;;;;5039344;28;20961;-75
2022/07/30 11:35:19;;;;;;;5.10;2.40;;;26.80;27.10;;;;;;5041777;28;20492;-75
2022/07/30 11:38:06;;;;;;;5.17;2.33;;;26.90;29.60;;;;;;5042023;28;20442;-75
2022/07/30 11:41:09;;;;;;;5.00;2.63;;;26.90;27.80;;;;;;5039282;28;20455;-75
2022/07/30 11:44:37;;;;;;;7.30;2.47;;;26.90;27.70;;;;;;5039920;28;20914;-75
2022/07/30 11:47:28;;;;;;;10.03;2.43;;;27.10;28.90;;;;;;5034449;28;20454;-75
2022/07/30 11:50:18;;;;;;;6.97;2.33;;;27.20;27.90;;;;;;5046924;28;20591;-75
2022/07/30 11:53:06;;;;;;;4.90;2.60;;;27.40;28.40;;;;;;5055223;28;20430;-74
2022/07/30 11:55:54;;;;;;;3.47;2.43;;;27.30;25.80;;;;;;5045976;28;20467;-74
2022/07/30 11:58:40;;;;;;;3.60;2.30;;;27.20;28.40;;;;;;5046773;28;20442;-75
2022/07/30 12:01:25;;;;;;;9.20;2.70;;;27.10;26.70;;;;;;5049099;28;20439;-75
2022/07/30 12:04:13;;;;;;;6.07;2.37;;;26.80;28.40;;;;;;5047969;28;20826;-74
2022/07/30 12:06:58;;;;;;;4.67;2.60;;;26.60;27.40;;;;;;5041476;28;20442;-75
2022/07/30 12:09:44;;;;;;;6.33;2.73;;;26.60;27.10;;;;;;5046986;28;20442;-74
2022/07/30 12:12:30;;;;;;;4.67;2.60;;;26.60;27.00;;;;;;5049394;28;20617;-75
2022/07/30 12:15:31;;;;;;;4.33;2.43;;;26.80;28.40;;;;;;5060819;28;20450;-74
2022/07/30 12:18:24;;;;;;;3.73;2.30;;;26.80;28.00;;;;;;5050420;28;20442;-74
2022/07/30 12:21:14;;;;;;;6.60;2.30;;;27.00;27.60;;;;;;5054621;28;20423;-73
2022/07/30 12:24:01;;;;;;;7.00;2.37;;;27.10;28.00;;;;;;5051700;28;20964;-74
2022/07/30 12:26:47;;;;;;;5.23;2.50;;;27.40;27.30;;;;;;5043067;28;20455;-74
2022/07/30 12:29:33;;;;;;;3.10;2.20;;;27.60;27.60;;;;;;5038057;28;20456;-75
2022/07/30 12:32:19;;;;;;;4.40;3.33;;;27.70;27.20;;;;;;5038396;28;20601;-75
2022/07/30 12:35:05;;;;;;;6.70;2.70;;;27.50;26.30;;;;;;5033380;28;20458;-74
2022/07/30 12:38:06;;;;;;;5.87;2.77;;;27.50;26.30;;;;;;5034434;28;20440;-74
2022/07/30 12:40:58;;;;;;;15.30;2.63;;;27.50;27.50;;;;;;5040347;28;20438;-74
2022/07/30 12:43:46;;;;;;;4.27;2.70;;;27.80;27.20;;;;;;5041743;28;20458;-73
2022/07/30 12:46:39;;;;;;;8.20;2.50;;;28.00;25.80;;;;;;5029756;28;20742;-75
2022/07/30 12:49:29;;;;;;;4.33;2.57;;;28.10;26.50;;;;;;5032378;28;20449;-74
2022/07/30 12:52:22;;;;;;;2.80;2.10;;;28.30;26.90;;;;;;5031263;28;20520;-74
2022/07/30 12:55:11;;;;;;;7.97;2.80;;;28.40;24.90;;;;;;5038678;28;20476;-75
2022/07/30 12:58:00;;;;;;;6.43;2.37;;;28.50;25.30;;;;;;5033979;28;20523;-75
2022/07/30 13:00:50;;;;;;;4.57;2.30;;;28.70;25.10;;;;;;5044098;28;20437;-74
2022/07/30 13:03:39;;;;;;;6.13;2.00;;;28.80;23.70;;;;;;5046406;28;20834;-74
2022/07/30 13:06:25;;;;;;;5.13;2.13;;;28.90;24.90;;;;;;5037586;28;20963;-74
2022/07/30 13:09:18;;;;;;;5.23;1.90;;;29.10;23.40;;;;;;5044111;28;20522;-75
2022/07/30 13:12:08;;;;;;;9.10;2.00;;;29.10;23.50;;;;;;5045078;28;20527;-75
2022/07/30 13:14:54;;;;;;;8.87;2.10;;;29.10;22.90;;;;;;5039116;28;20478;-75
2022/07/30 13:17:40;;;;;;;4.93;2.40;;;29.10;22.80;;;;;;5046917;28;20791;-75
2022/07/30 13:20:26;;;;;;;11.73;2.40;;;28.90;23.30;;;;;;5046937;28;20808;-75
2022/07/30 13:23:11;;;;;;;4.00;2.47;;;28.90;23.80;;;;;;5041155;28;20467;-74
2022/07/30 13:25:58;;;;;;;4.50;2.03;;;28.90;23.20;;;;;;5036944;28;20523;-75
2022/07/30 13:28:45;;;;;;;3.70;1.93;;;28.60;23.90;;;;;;5047740;28;20448;-74
2022/07/30 13:31:31;;;;;;;4.40;2.10;;;28.60;24.10;;;;;;5047309;28;20532;-74
2022/07/30 13:34:17;;;;;;;4.87;1.87;;;28.50;24.00;;;;;;5042668;28;20456;-73
2022/07/30 13:37:02;;;;;;;3.93;2.10;;;28.40;24.90;;;;;;5047958;28;20851;-74
2022/07/30 13:39:48;;;;;;;4.30;2.20;;;28.30;23.10;;;;;;5041818;28;20440;-74
2022/07/30 13:42:34;;;;;;;3.93;1.90;;;28.10;23.90;;;;;;5036357;28;20511;-75
2022/07/30 13:45:21;;;;;;;4.40;2.03;;;27.90;23.50;;;;;;5033841;28;20475;-75
2022/07/30 13:48:06;;;;;;;3.57;1.90;;;27.80;23.80;;;;;;5039958;28;20944;-74
2022/07/30 13:50:52;;;;;;;3.00;1.60;;;27.90;24.20;;;;;;5038994;28;20834;-74
2022/07/30 13:53:38;;;;;;;3.97;2.43;;;27.80;22.80;;;;;;5042917;28;20440;-74
2022/07/30 13:56:23;;;;;;;3.10;1.97;;;27.80;24.90;;;;;;5040207;28;20521;-74
2022/07/30 13:59:09;;;;;;;5.50;1.60;;;27.70;23.20;;;;;;5043377;28;20809;-75
2022/07/30 14:01:57;;;;;;;6.53;3.30;;;27.90;23.40;;;;;;5038392;28;20448;-74
2022/07/30 14:04:42;;;;;;;3.83;1.67;;;28.30;23.20;;;;;;5044036;28;20735;-75
2022/07/30 14:07:28;;;;;;;4.60;1.80;;;28.50;22.70;;;;;;5047683;28;20451;-75
2022/07/30 14:10:14;;;;;;;4.03;1.80;;;28.70;21.30;;;;;;5049942;28;20756;-75
2022/07/30 14:13:00;;;;;;;6.00;1.83;;;28.90;20.70;;;;;;5038495;28;20471;-74
2022/07/30 14:15:47;;;;;;;6.53;1.67;;;29.00;20.20;;;;;;5036909;28;20465;-74
2022/07/30 14:18:34;;;;;;;4.10;1.77;;;28.80;19.90;;;;;;5038406;28;20806;-74
2022/07/30 14:21:20;;;;;;;3.90;1.50;;;28.60;18.90;;;;;;5038834;28;20452;-75
2022/07/30 14:24:06;;;;;;;4.57;1.53;;;28.60;19.70;;;;;;5049108;28;20459;-75
2022/07/30 14:26:52;;;;;;;3.40;1.60;;;28.80;20.40;;;;;;5043545;28;20466;-75
2022/07/30 14:29:37;;;;;;;3.30;1.80;;;29.00;17.80;;;;;;5040919;28;20485;-74